sensor_id;sensor_type;location;lat;lon;timestamp;P1;durP1;ratioP1;P2;durP2;ratioP2
9880;SDS011;4979;51.014;6.678;2023-09-19T00:00:14;7.07;;;2.65;;
9880;SDS011;4979;51.014;6.678;2023-09-19T00:02:40;7.57;;;2.10;;
9880;SDS011;4979;51.014;6.678;2023-09-19T00:05:05;6.47;;;2.00;;
9880;SDS011;4979;51.014;6.678;2023-09-19T00:07:33;9.70;;;2.72;;
9880;SDS011;4979;51.014;6.678;2023-09-19T00:10:01;9.27;;;2.10;;
9880;SDS011;4979;51.014;6.678;2023-09-19T00:12:27;8.45;;;2.63;;
9880;SDS011;4979;51.014;6.678;2023-09-19T00:14:53;5.65;;;2.20;;
9880;SDS011;4979;51.014;6.678;2023-09-19T00:17:18;7.28;;;2.20;;
9880;SDS011;4979;51.014;6.678;2023-09-19T00:19:44;8.70;;;2.05;;
9880;SDS011;4979;51.014;6.678;2023-09-19T00:22:11;7.97;;;2.28;;
9880;SDS011;4979;51.014;6.678;2023-09-19T00:24:38;5.53;;;2.17;;
9880;SDS011;4979;51.014;6.678;2023-09-19T00:27:03;9.70;;;2.40;;
9880;SDS011;4979;51.014;6.678;2023-09-19T00:29:30;7.05;;;2.20;;
9880;SDS011;4979;51.014;6.678;2023-09-19T00:31:56;6.63;;;2.13;;
9880;SDS011;4979;51.014;6.678;2023-09-19T00:34:22;9.85;;;2.97;;
9880;SDS011;4979;51.014;6.678;2023-09-19T00:36:47;9.85;;;2.47;;
9880;SDS011;4979;51.014;6.678;2023-09-19T00:39:13;5.88;;;1.80;;
9880;SDS011;4979;51.014;6.678;2023-09-19T00:41:39;9.55;;;2.47;;
9880;SDS011;4979;51.014;6.678;2023-09-19T00:44:05;8.90;;;2.67;;
9880;SDS011;4979;51.014;6.678;2023-09-19T00:46:31;8.75;;;2.33;;
9880;SDS011;4979;51.014;6.678;2023-09-19T00:48:57;5.22;;;2.55;;
9880;SDS011;4979;51.014;6.678;2023-09-19T00:51:24;5.18;;;2.08;;
9880;SDS011;4979;51.014;6.678;2023-09-19T00:53:52;8.68;;;2.88;;
9880;SDS011;4979;51.014;6.678;2023-09-19T00:56:19;8.50;;;2.38;;
9880;SDS011;4979;51.014;6.678;2023-09-19T00:58:45;8.07;;;2.22;;
9880;SDS011;4979;51.014;6.678;2023-09-19T01:01:12;9.07;;;2.35;;
9880;SDS011;4979;51.014;6.678;2023-09-19T01:03:39;5.43;;;2.20;;
9880;SDS011;4979;51.014;6.678;2023-09-19T01:06:06;3.63;;;1.80;;
9880;SDS011;4979;51.014;6.678;2023-09-19T01:08:33;7.00;;;2.17;;
9880;SDS011;4979;51.014;6.678;2023-09-19T01:11:01;7.75;;;1.85;;
9880;SDS011;4979;51.014;6.678;2023-09-19T01:13:39;6.25;;;2.28;;
9880;SDS011;4979;51.014;6.678;2023-09-19T01:16:16;8.45;;;2.00;;
9880;SDS011;4979;51.014;6.678;2023-09-19T01:18:55;7.63;;;2.28;;
9880;SDS011;4979;51.014;6.678;2023-09-19T01:21:55;5.78;;;2.47;;
9880;SDS011;4979;51.014;6.678;2023-09-19T01:30:14;6.75;;;2.30;;
9880;SDS011;4979;51.014;6.678;2023-09-19T01:32:47;5.35;;;2.10;;
9880;SDS011;4979;51.014;6.678;2023-09-19T01:35:17;9.13;;;2.67;;
9880;SDS011;4979;51.014;6.678;2023-09-19T01:37:43;11.27;;;2.75;;
9880;SDS011;4979;51.014;6.678;2023-09-19T01:40:10;8.57;;;2.30;;
9880;SDS011;4979;51.014;6.678;2023-09-19T01:45:33;9.07;;;2.72;;
9880;SDS011;4979;51.014;6.678;2023-09-19T01:48:35;7.93;;;2.15;;
9880;SDS011;4979;51.014;6.678;2023-09-19T01:51:06;8.52;;;2.50;;
9880;SDS011;4979;51.014;6.678;2023-09-19T01:53:51;13.25;;;2.78;;
9880;SDS011;4979;51.014;6.678;2023-09-19T01:56:28;7.43;;;2.35;;
9880;SDS011;4979;51.014;6.678;2023-09-19T01:59:02;6.47;;;1.83;;
9880;SDS011;4979;51.014;6.678;2023-09-19T02:01:32;7.68;;;2.45;;
9880;SDS011;4979;51.014;6.678;2023-09-19T02:04:00;5.40;;;2.38;;
9880;SDS011;4979;51.014;6.678;2023-09-19T02:06:26;7.75;;;2.40;;
9880;SDS011;4979;51.014;6.678;2023-09-19T02:08:51;6.45;;;2.22;;
9880;SDS011;4979;51.014;6.678;2023-09-19T02:11:18;10.60;;;2.72;;
9880;SDS011;4979;51.014;6.678;2023-09-19T02:13:44;9.77;;;2.28;;
9880;SDS011;4979;51.014;6.678;2023-09-19T02:16:10;6.85;;;2.10;;
9880;SDS011;4979;51.014;6.678;2023-09-19T02:18:36;7.85;;;2.13;;
9880;SDS011;4979;51.014;6.678;2023-09-19T02:21:01;7.65;;;2.40;;
9880;SDS011;4979;51.014;6.678;2023-09-19T02:23:28;5.70;;;2.28;;
9880;SDS011;4979;51.014;6.678;2023-09-19T02:25:55;6.78;;;2.90;;
9880;SDS011;4979;51.014;6.678;2023-09-19T02:28:25;7.85;;;2.95;;
9880;SDS011;4979;51.014;6.678;2023-09-19T02:30:55;15.20;;;3.45;;
9880;SDS011;4979;51.014;6.678;2023-09-19T02:33:21;10.88;;;2.53;;
9880;SDS011;4979;51.014;6.678;2023-09-19T02:35:47;17.10;;;2.63;;
9880;SDS011;4979;51.014;6.678;2023-09-19T02:38:12;7.93;;;2.33;;
9880;SDS011;4979;51.014;6.678;2023-09-19T02:40:39;7.97;;;2.67;;
9880;SDS011;4979;51.014;6.678;2023-09-19T02:43:05;9.95;;;2.80;;
9880;SDS011;4979;51.014;6.678;2023-09-19T02:45:32;6.25;;;2.35;;
9880;SDS011;4979;51.014;6.678;2023-09-19T02:47:57;9.52;;;2.45;;
9880;SDS011;4979;51.014;6.678;2023-09-19T02:50:23;13.52;;;2.53;;
9880;SDS011;4979;51.014;6.678;2023-09-19T02:52:49;7.32;;;1.88;;
9880;SDS011;4979;51.014;6.678;2023-09-19T02:55:15;5.72;;;2.40;;
9880;SDS011;4979;51.014;6.678;2023-09-19T02:57:47;12.25;;;2.92;;
9880;SDS011;4979;51.014;6.678;2023-09-19T03:00:14;11.57;;;2.60;;
9880;SDS011;4979;51.014;6.678;2023-09-19T03:02:41;7.30;;;2.20;;
9880;SDS011;4979;51.014;6.678;2023-09-19T03:05:07;12.95;;;2.72;;
9880;SDS011;4979;51.014;6.678;2023-09-19T03:07:33;10.48;;;2.78;;
9880;SDS011;4979;51.014;6.678;2023-09-19T03:09:59;14.50;;;3.00;;
9880;SDS011;4979;51.014;6.678;2023-09-19T03:12:25;9.20;;;2.17;;
9880;SDS011;4979;51.014;6.678;2023-09-19T03:14:51;6.85;;;2.70;;
9880;SDS011;4979;51.014;6.678;2023-09-19T03:17:17;9.23;;;3.15;;
9880;SDS011;4979;51.014;6.678;2023-09-19T03:19:44;8.27;;;2.25;;
9880;SDS011;4979;51.014;6.678;2023-09-19T03:22:11;8.82;;;2.35;;
9880;SDS011;4979;51.014;6.678;2023-09-19T03:24:37;11.70;;;2.58;;
9880;SDS011;4979;51.014;6.678;2023-09-19T03:27:02;8.02;;;2.40;;
9880;SDS011;4979;51.014;6.678;2023-09-19T03:29:28;7.30;;;2.15;;
9880;SDS011;4979;51.014;6.678;2023-09-19T03:31:55;6.65;;;2.22;;
9880;SDS011;4979;51.014;6.678;2023-09-19T03:34:20;8.38;;;2.33;;
9880;SDS011;4979;51.014;6.678;2023-09-19T03:36:46;8.82;;;2.53;;
9880;SDS011;4979;51.014;6.678;2023-09-19T03:39:12;7.28;;;2.40;;
9880;SDS011;4979;51.014;6.678;2023-09-19T03:41:40;8.02;;;2.40;;
9880;SDS011;4979;51.014;6.678;2023-09-19T03:44:06;10.00;;;2.30;;
9880;SDS011;4979;51.014;6.678;2023-09-19T03:46:32;9.52;;;2.63;;
9880;SDS011;4979;51.014;6.678;2023-09-19T03:48:59;8.73;;;2.70;;
9880;SDS011;4979;51.014;6.678;2023-09-19T03:51:25;12.00;;;2.50;;
9880;SDS011;4979;51.014;6.678;2023-09-19T03:53:50;11.27;;;2.65;;
9880;SDS011;4979;51.014;6.678;2023-09-19T03:56:16;8.63;;;2.95;;
9880;SDS011;4979;51.014;6.678;2023-09-19T03:58:41;5.65;;;2.10;;
9880;SDS011;4979;51.014;6.678;2023-09-19T04:01:07;12.57;;;2.33;;
9880;SDS011;4979;51.014;6.678;2023-09-19T04:03:35;7.45;;;2.40;;
9880;SDS011;4979;51.014;6.678;2023-09-19T04:06:14;6.97;;;2.63;;
9880;SDS011;4979;51.014;6.678;2023-09-19T04:08:40;10.40;;;2.70;;
9880;SDS011;4979;51.014;6.678;2023-09-19T04:11:06;8.90;;;3.13;;
9880;SDS011;4979;51.014;6.678;2023-09-19T04:13:32;7.15;;;2.13;;
9880;SDS011;4979;51.014;6.678;2023-09-19T04:15:58;10.90;;;2.35;;
9880;SDS011;4979;51.014;6.678;2023-09-19T04:18:23;9.00;;;2.22;;
9880;SDS011;4979;51.014;6.678;2023-09-19T04:20:49;6.30;;;2.03;;
9880;SDS011;4979;51.014;6.678;2023-09-19T04:23:15;9.70;;;2.38;;
9880;SDS011;4979;51.014;6.678;2023-09-19T04:25:41;9.95;;;3.13;;
9880;SDS011;4979;51.014;6.678;2023-09-19T04:28:06;11.70;;;3.38;;
9880;SDS011;4979;51.014;6.678;2023-09-19T04:30:32;13.77;;;3.33;;
9880;SDS011;4979;51.014;6.678;2023-09-19T04:32:57;12.18;;;2.75;;
9880;SDS011;4979;51.014;6.678;2023-09-19T04:35:24;11.38;;;2.70;;
9880;SDS011;4979;51.014;6.678;2023-09-19T04:37:51;10.40;;;2.38;;
9880;SDS011;4979;51.014;6.678;2023-09-19T04:40:17;9.55;;;2.28;;
9880;SDS011;4979;51.014;6.678;2023-09-19T04:42:44;8.23;;;2.15;;
9880;SDS011;4979;51.014;6.678;2023-09-19T04:45:11;13.00;;;3.03;;
9880;SDS011;4979;51.014;6.678;2023-09-19T04:47:37;9.32;;;3.03;;
9880;SDS011;4979;51.014;6.678;2023-09-19T04:50:07;7.68;;;3.13;;
9880;SDS011;4979;51.014;6.678;2023-09-19T04:52:38;6.55;;;2.47;;
9880;SDS011;4979;51.014;6.678;2023-09-19T04:55:13;8.38;;;2.47;;
9880;SDS011;4979;51.014;6.678;2023-09-19T04:57:45;8.23;;;2.22;;
9880;SDS011;4979;51.014;6.678;2023-09-19T05:00:18;12.43;;;2.78;;
9880;SDS011;4979;51.014;6.678;2023-09-19T05:02:51;14.75;;;3.65;;
9880;SDS011;4979;51.014;6.678;2023-09-19T05:05:17;7.82;;;2.40;;
9880;SDS011;4979;51.014;6.678;2023-09-19T05:07:44;7.85;;;2.30;;
9880;SDS011;4979;51.014;6.678;2023-09-19T05:10:10;9.55;;;2.22;;
9880;SDS011;4979;51.014;6.678;2023-09-19T05:12:36;11.60;;;2.97;;
9880;SDS011;4979;51.014;6.678;2023-09-19T05:15:02;10.13;;;2.40;;
9880;SDS011;4979;51.014;6.678;2023-09-19T05:17:29;8.27;;;2.47;;
9880;SDS011;4979;51.014;6.678;2023-09-19T05:19:56;13.13;;;2.90;;
9880;SDS011;4979;51.014;6.678;2023-09-19T05:22:23;10.27;;;3.97;;
9880;SDS011;4979;51.014;6.678;2023-09-19T05:24:49;9.25;;;2.30;;
9880;SDS011;4979;51.014;6.678;2023-09-19T05:27:16;6.88;;;2.20;;
9880;SDS011;4979;51.014;6.678;2023-09-19T05:29:42;9.82;;;2.38;;
9880;SDS011;4979;51.014;6.678;2023-09-19T05:32:09;11.95;;;2.80;;
9880;SDS011;4979;51.014;6.678;2023-09-19T05:34:35;11.60;;;2.60;;
9880;SDS011;4979;51.014;6.678;2023-09-19T05:37:01;12.63;;;2.58;;
9880;SDS011;4979;51.014;6.678;2023-09-19T05:39:27;8.57;;;2.55;;
9880;SDS011;4979;51.014;6.678;2023-09-19T05:41:53;14.40;;;3.63;;
9880;SDS011;4979;51.014;6.678;2023-09-19T05:44:18;9.75;;;2.50;;
9880;SDS011;4979;51.014;6.678;2023-09-19T05:46:44;11.48;;;2.92;;
9880;SDS011;4979;51.014;6.678;2023-09-19T05:49:11;15.30;;;2.63;;
9880;SDS011;4979;51.014;6.678;2023-09-19T05:51:36;10.43;;;3.20;;
9880;SDS011;4979;51.014;6.678;2023-09-19T05:54:02;13.45;;;2.63;;
9880;SDS011;4979;51.014;6.678;2023-09-19T05:56:29;11.65;;;3.13;;
9880;SDS011;4979;51.014;6.678;2023-09-19T05:58:55;9.00;;;2.60;;
9880;SDS011;4979;51.014;6.678;2023-09-19T06:01:21;11.63;;;2.55;;
9880;SDS011;4979;51.014;6.678;2023-09-19T06:03:47;10.65;;;2.80;;
9880;SDS011;4979;51.014;6.678;2023-09-19T06:06:13;8.93;;;2.35;;
9880;SDS011;4979;51.014;6.678;2023-09-19T06:08:39;8.63;;;3.00;;
9880;SDS011;4979;51.014;6.678;2023-09-19T06:11:04;8.77;;;2.50;;
9880;SDS011;4979;51.014;6.678;2023-09-19T06:13:32;14.65;;;2.45;;
9880;SDS011;4979;51.014;6.678;2023-09-19T06:15:58;12.18;;;2.42;;
9880;SDS011;4979;51.014;6.678;2023-09-19T06:18:24;14.10;;;3.80;;
9880;SDS011;4979;51.014;6.678;2023-09-19T06:20:51;11.07;;;2.95;;
9880;SDS011;4979;51.014;6.678;2023-09-19T06:23:16;10.50;;;3.13;;
9880;SDS011;4979;51.014;6.678;2023-09-19T06:25:43;12.73;;;2.92;;
9880;SDS011;4979;51.014;6.678;2023-09-19T06:28:08;10.15;;;2.60;;
9880;SDS011;4979;51.014;6.678;2023-09-19T06:30:37;10.60;;;2.83;;
9880;SDS011;4979;51.014;6.678;2023-09-19T06:33:05;11.00;;;2.40;;
9880;SDS011;4979;51.014;6.678;2023-09-19T06:35:32;10.40;;;2.70;;
9880;SDS011;4979;51.014;6.678;2023-09-19T06:37:58;10.90;;;2.67;;
9880;SDS011;4979;51.014;6.678;2023-09-19T06:40:24;11.80;;;3.10;;
9880;SDS011;4979;51.014;6.678;2023-09-19T06:42:52;6.75;;;2.53;;
9880;SDS011;4979;51.014;6.678;2023-09-19T06:45:19;10.80;;;2.35;;
9880;SDS011;4979;51.014;6.678;2023-09-19T06:47:45;9.50;;;2.67;;
9880;SDS011;4979;51.014;6.678;2023-09-19T06:50:11;10.48;;;2.45;;
9880;SDS011;4979;51.014;6.678;2023-09-19T06:52:42;11.90;;;2.85;;
9880;SDS011;4979;51.014;6.678;2023-09-19T06:55:08;7.82;;;2.42;;
9880;SDS011;4979;51.014;6.678;2023-09-19T06:57:38;10.05;;;3.13;;
9880;SDS011;4979;51.014;6.678;2023-09-19T07:00:05;11.65;;;2.58;;
9880;SDS011;4979;51.014;6.678;2023-09-19T07:02:41;9.20;;;2.90;;
9880;SDS011;4979;51.014;6.678;2023-09-19T07:05:07;12.07;;;3.38;;
9880;SDS011;4979;51.014;6.678;2023-09-19T07:07:33;10.50;;;2.25;;
9880;SDS011;4979;51.014;6.678;2023-09-19T07:10:02;12.65;;;2.95;;
9880;SDS011;4979;51.014;6.678;2023-09-19T07:12:30;9.05;;;2.75;;
9880;SDS011;4979;51.014;6.678;2023-09-19T07:14:57;6.47;;;1.98;;
9880;SDS011;4979;51.014;6.678;2023-09-19T07:17:23;13.05;;;2.42;;
9880;SDS011;4979;51.014;6.678;2023-09-19T07:19:49;10.07;;;3.13;;
9880;SDS011;4979;51.014;6.678;2023-09-19T07:22:15;11.88;;;2.50;;
9880;SDS011;4979;51.014;6.678;2023-09-19T07:24:41;13.35;;;2.75;;
9880;SDS011;4979;51.014;6.678;2023-09-19T07:27:06;12.32;;;2.80;;
9880;SDS011;4979;51.014;6.678;2023-09-19T07:29:32;8.32;;;2.50;;
9880;SDS011;4979;51.014;6.678;2023-09-19T07:31:57;6.10;;;2.42;;
9880;SDS011;4979;51.014;6.678;2023-09-19T07:34:23;13.75;;;2.83;;
9880;SDS011;4979;51.014;6.678;2023-09-19T07:36:49;8.23;;;3.00;;
9880;SDS011;4979;51.014;6.678;2023-09-19T07:39:15;11.63;;;2.85;;
9880;SDS011;4979;51.014;6.678;2023-09-19T07:41:40;9.82;;;2.83;;
9880;SDS011;4979;51.014;6.678;2023-09-19T07:44:07;7.68;;;2.60;;
9880;SDS011;4979;51.014;6.678;2023-09-19T07:46:33;12.23;;;2.40;;
9880;SDS011;4979;51.014;6.678;2023-09-19T07:48:59;7.57;;;2.50;;
9880;SDS011;4979;51.014;6.678;2023-09-19T07:51:25;9.77;;;3.13;;
9880;SDS011;4979;51.014;6.678;2023-09-19T07:53:52;7.80;;;2.38;;
9880;SDS011;4979;51.014;6.678;2023-09-19T07:56:17;12.15;;;3.20;;
9880;SDS011;4979;51.014;6.678;2023-09-19T07:58:45;6.10;;;2.28;;
9880;SDS011;4979;51.014;6.678;2023-09-19T08:01:11;12.30;;;2.50;;
9880;SDS011;4979;51.014;6.678;2023-09-19T08:03:39;11.52;;;2.83;;
9880;SDS011;4979;51.014;6.678;2023-09-19T08:06:09;6.70;;;2.22;;
9880;SDS011;4979;51.014;6.678;2023-09-19T08:08:35;9.73;;;2.85;;
9880;SDS011;4979;51.014;6.678;2023-09-19T08:11:05;12.43;;;2.70;;
9880;SDS011;4979;51.014;6.678;2023-09-19T08:13:37;6.50;;;2.38;;
9880;SDS011;4979;51.014;6.678;2023-09-19T08:16:08;10.73;;;2.60;;
9880;SDS011;4979;51.014;6.678;2023-09-19T08:18:34;6.20;;;2.70;;
9880;SDS011;4979;51.014;6.678;2023-09-19T08:21:00;10.13;;;3.00;;
9880;SDS011;4979;51.014;6.678;2023-09-19T08:23:26;9.75;;;3.08;;
9880;SDS011;4979;51.014;6.678;2023-09-19T08:25:56;8.50;;;3.05;;
9880;SDS011;4979;51.014;6.678;2023-09-19T08:28:23;13.40;;;3.20;;
9880;SDS011;4979;51.014;6.678;2023-09-19T08:30:49;8.35;;;2.55;;
9880;SDS011;4979;51.014;6.678;2023-09-19T08:33:15;14.10;;;3.20;;
9880;SDS011;4979;51.014;6.678;2023-09-19T08:35:41;13.30;;;2.42;;
9880;SDS011;4979;51.014;6.678;2023-09-19T08:38:07;10.68;;;3.05;;
9880;SDS011;4979;51.014;6.678;2023-09-19T08:40:36;8.35;;;2.33;;
9880;SDS011;4979;51.014;6.678;2023-09-19T08:43:07;9.32;;;2.40;;
9880;SDS011;4979;51.014;6.678;2023-09-19T08:45:33;6.82;;;2.38;;
9880;SDS011;4979;51.014;6.678;2023-09-19T08:50:31;8.80;;;2.22;;
9880;SDS011;4979;51.014;6.678;2023-09-19T08:53:01;9.35;;;3.13;;
9880;SDS011;4979;51.014;6.678;2023-09-19T08:55:35;11.43;;;2.80;;
9880;SDS011;4979;51.014;6.678;2023-09-19T08:58:03;11.63;;;2.83;;
9880;SDS011;4979;51.014;6.678;2023-09-19T09:00:31;11.85;;;2.70;;
9880;SDS011;4979;51.014;6.678;2023-09-19T09:02:58;8.43;;;2.00;;
9880;SDS011;4979;51.014;6.678;2023-09-19T09:05:25;6.75;;;2.55;;
9880;SDS011;4979;51.014;6.678;2023-09-19T09:07:52;13.35;;;2.90;;
9880;SDS011;4979;51.014;6.678;2023-09-19T09:10:21;8.02;;;2.70;;
9880;SDS011;4979;51.014;6.678;2023-09-19T09:12:57;9.85;;;2.67;;
9880;SDS011;4979;51.014;6.678;2023-09-19T09:15:24;7.45;;;2.65;;
9880;SDS011;4979;51.014;6.678;2023-09-19T09:17:50;12.85;;;2.80;;
9880;SDS011;4979;51.014;6.678;2023-09-19T09:20:18;4.68;;;2.50;;
9880;SDS011;4979;51.014;6.678;2023-09-19T09:22:53;5.72;;;2.10;;
9880;SDS011;4979;51.014;6.678;2023-09-19T09:25:20;6.82;;;2.50;;
9880;SDS011;4979;51.014;6.678;2023-09-19T09:27:59;6.35;;;2.25;;
9880;SDS011;4979;51.014;6.678;2023-09-19T09:30:35;8.80;;;2.05;;
9880;SDS011;4979;51.014;6.678;2023-09-19T09:33:11;4.82;;;2.03;;
9880;SDS011;4979;51.014;6.678;2023-09-19T09:35:46;8.40;;;2.63;;
9880;SDS011;4979;51.014;6.678;2023-09-19T09:38:43;8.77;;;2.40;;
9880;SDS011;4979;51.014;6.678;2023-09-19T09:41:11;4.32;;;2.22;;
9880;SDS011;4979;51.014;6.678;2023-09-19T09:43:41;10.13;;;2.78;;
9880;SDS011;4979;51.014;6.678;2023-09-19T09:48:47;10.40;;;2.85;;
9880;SDS011;4979;51.014;6.678;2023-09-19T09:51:42;10.63;;;2.00;;
9880;SDS011;4979;51.014;6.678;2023-09-19T09:54:12;9.77;;;2.70;;
9880;SDS011;4979;51.014;6.678;2023-09-19T09:59:46;7.38;;;2.45;;
9880;SDS011;4979;51.014;6.678;2023-09-19T10:02:13;8.05;;;2.25;;
9880;SDS011;4979;51.014;6.678;2023-09-19T10:04:45;10.32;;;2.50;;
9880;SDS011;4979;51.014;6.678;2023-09-19T10:07:26;6.85;;;2.45;;
9880;SDS011;4979;51.014;6.678;2023-09-19T10:10:02;9.02;;;2.33;;
9880;SDS011;4979;51.014;6.678;2023-09-19T10:12:42;7.47;;;2.05;;
9880;SDS011;4979;51.014;6.678;2023-09-19T10:15:11;8.77;;;2.03;;
9880;SDS011;4979;51.014;6.678;2023-09-19T10:17:40;10.00;;;2.22;;
9880;SDS011;4979;51.014;6.678;2023-09-19T10:20:14;6.50;;;2.60;;
9880;SDS011;4979;51.014;6.678;2023-09-19T10:22:52;6.35;;;2.08;;
9880;SDS011;4979;51.014;6.678;2023-09-19T10:25:23;8.45;;;3.28;;
9880;SDS011;4979;51.014;6.678;2023-09-19T10:28:01;9.90;;;4.95;;
9880;SDS011;4979;51.014;6.678;2023-09-19T10:30:28;8.82;;;2.80;;
9880;SDS011;4979;51.014;6.678;2023-09-19T10:33:00;10.48;;;2.78;;
9880;SDS011;4979;51.014;6.678;2023-09-19T10:35:27;5.72;;;2.05;;
9880;SDS011;4979;51.014;6.678;2023-09-19T10:37:54;6.28;;;2.60;;
9880;SDS011;4979;51.014;6.678;2023-09-19T10:40:26;6.38;;;2.53;;
9880;SDS011;4979;51.014;6.678;2023-09-19T10:42:59;8.43;;;2.47;;
9880;SDS011;4979;51.014;6.678;2023-09-19T10:45:32;8.52;;;2.90;;
9880;SDS011;4979;51.014;6.678;2023-09-19T10:47:59;4.43;;;1.98;;
9880;SDS011;4979;51.014;6.678;2023-09-19T10:50:30;6.13;;;2.08;;
9880;SDS011;4979;51.014;6.678;2023-09-19T10:53:00;6.50;;;2.50;;
9880;SDS011;4979;51.014;6.678;2023-09-19T10:55:30;11.02;;;2.53;;
9880;SDS011;4979;51.014;6.678;2023-09-19T10:58:00;7.07;;;2.33;;
9880;SDS011;4979;51.014;6.678;2023-09-19T11:00:50;7.90;;;2.35;;
9880;SDS011;4979;51.014;6.678;2023-09-19T11:03:31;9.70;;;2.33;;
9880;SDS011;4979;51.014;6.678;2023-09-19T11:30:42;12.15;;;2.38;;
9880;SDS011;4979;51.014;6.678;2023-09-19T11:33:23;7.75;;;2.55;;
9880;SDS011;4979;51.014;6.678;2023-09-19T11:46:19;6.43;;;2.10;;
9880;SDS011;4979;51.014;6.678;2023-09-19T11:48:48;9.35;;;2.15;;
9880;SDS011;4979;51.014;6.678;2023-09-19T11:51:15;11.52;;;2.78;;
9880;SDS011;4979;51.014;6.678;2023-09-19T11:53:51;6.35;;;2.42;;
9880;SDS011;4979;51.014;6.678;2023-09-19T11:56:22;5.47;;;2.00;;
9880;SDS011;4979;51.014;6.678;2023-09-19T11:58:53;7.60;;;2.33;;
9880;SDS011;4979;51.014;6.678;2023-09-19T12:01:30;7.22;;;2.08;;
9880;SDS011;4979;51.014;6.678;2023-09-19T12:03:58;10.07;;;2.28;;
9880;SDS011;4979;51.014;6.678;2023-09-19T12:06:25;11.20;;;2.55;;
9880;SDS011;4979;51.014;6.678;2023-09-19T12:08:52;6.57;;;2.40;;
9880;SDS011;4979;51.014;6.678;2023-09-19T12:11:19;9.27;;;2.40;;
9880;SDS011;4979;51.014;6.678;2023-09-19T12:13:46;6.22;;;2.72;;
9880;SDS011;4979;51.014;6.678;2023-09-19T12:16:14;6.45;;;2.00;;
9880;SDS011;4979;51.014;6.678;2023-09-19T12:18:41;6.72;;;2.38;;
9880;SDS011;4979;51.014;6.678;2023-09-19T12:21:20;5.18;;;1.60;;
9880;SDS011;4979;51.014;6.678;2023-09-19T12:24:04;6.38;;;2.10;;
9880;SDS011;4979;51.014;6.678;2023-09-19T12:26:41;6.00;;;1.88;;
9880;SDS011;4979;51.014;6.678;2023-09-19T12:29:16;4.32;;;1.98;;
9880;SDS011;4979;51.014;6.678;2023-09-19T12:34:22;7.63;;;1.98;;
9880;SDS011;4979;51.014;6.678;2023-09-19T12:37:03;1.83;;;1.42;;
9880;SDS011;4979;51.014;6.678;2023-09-19T12:39:31;6.30;;;1.83;;
9880;SDS011;4979;51.014;6.678;2023-09-19T12:41:56;5.03;;;2.17;;
9880;SDS011;4979;51.014;6.678;2023-09-19T12:44:23;7.20;;;1.80;;
9880;SDS011;4979;51.014;6.678;2023-09-19T12:46:50;8.27;;;2.22;;
9880;SDS011;4979;51.014;6.678;2023-09-19T12:49:17;2.78;;;1.55;;
9880;SDS011;4979;51.014;6.678;2023-09-19T12:51:43;7.50;;;2.35;;
9880;SDS011;4979;51.014;6.678;2023-09-19T12:54:10;4.72;;;2.13;;
9880;SDS011;4979;51.014;6.678;2023-09-19T12:56:39;6.65;;;2.00;;
9880;SDS011;4979;51.014;6.678;2023-09-19T12:59:09;5.97;;;1.33;;
9880;SDS011;4979;51.014;6.678;2023-09-19T13:01:38;6.40;;;1.98;;
9880;SDS011;4979;51.014;6.678;2023-09-19T13:06:45;19.05;;;3.05;;
9880;SDS011;4979;51.014;6.678;2023-09-19T13:09:13;7.53;;;1.95;;
9880;SDS011;4979;51.014;6.678;2023-09-19T13:11:40;3.35;;;1.95;;
9880;SDS011;4979;51.014;6.678;2023-09-19T13:14:24;8.38;;;2.08;;
9880;SDS011;4979;51.014;6.678;2023-09-19T13:16:57;5.50;;;1.65;;
9880;SDS011;4979;51.014;6.678;2023-09-19T13:25:11;5.20;;;1.60;;
9880;SDS011;4979;51.014;6.678;2023-09-19T13:27:40;6.38;;;1.67;;
9880;SDS011;4979;51.014;6.678;2023-09-19T13:30:07;2.30;;;1.52;;
9880;SDS011;4979;51.014;6.678;2023-09-19T13:32:33;4.32;;;1.50;;
9880;SDS011;4979;51.014;6.678;2023-09-19T13:34:59;5.13;;;1.88;;
9880;SDS011;4979;51.014;6.678;2023-09-19T13:37:24;8.95;;;1.63;;
9880;SDS011;4979;51.014;6.678;2023-09-19T13:39:51;9.40;;;2.55;;
9880;SDS011;4979;51.014;6.678;2023-09-19T13:42:17;4.85;;;1.67;;
9880;SDS011;4979;51.014;6.678;2023-09-19T13:44:43;2.78;;;1.50;;
9880;SDS011;4979;51.014;6.678;2023-09-19T13:47:09;1.67;;;0.98;;
9880;SDS011;4979;51.014;6.678;2023-09-19T13:49:38;3.53;;;1.30;;
9880;SDS011;4979;51.014;6.678;2023-09-19T13:52:04;6.32;;;1.45;;
9880;SDS011;4979;51.014;6.678;2023-09-19T13:54:29;5.32;;;1.45;;
9880;SDS011;4979;51.014;6.678;2023-09-19T13:56:55;4.00;;;1.20;;
9880;SDS011;4979;51.014;6.678;2023-09-19T13:59:21;5.70;;;1.58;;
9880;SDS011;4979;51.014;6.678;2023-09-19T14:01:49;6.93;;;1.40;;
9880;SDS011;4979;51.014;6.678;2023-09-19T14:04:15;5.63;;;1.50;;
9880;SDS011;4979;51.014;6.678;2023-09-19T14:06:42;4.65;;;1.38;;
9880;SDS011;4979;51.014;6.678;2023-09-19T14:09:08;6.57;;;1.48;;
9880;SDS011;4979;51.014;6.678;2023-09-19T14:11:35;3.67;;;1.38;;
9880;SDS011;4979;51.014;6.678;2023-09-19T14:14:01;2.47;;;1.33;;
9880;SDS011;4979;51.014;6.678;2023-09-19T14:16:26;1.95;;;1.15;;
9880;SDS011;4979;51.014;6.678;2023-09-19T14:18:55;4.88;;;1.80;;
9880;SDS011;4979;51.014;6.678;2023-09-19T14:21:20;7.63;;;1.65;;
9880;SDS011;4979;51.014;6.678;2023-09-19T14:23:46;7.00;;;1.45;;
9880;SDS011;4979;51.014;6.678;2023-09-19T14:26:13;1.45;;;0.98;;
9880;SDS011;4979;51.014;6.678;2023-09-19T14:28:39;3.97;;;1.40;;
9880;SDS011;4979;51.014;6.678;2023-09-19T14:31:05;10.05;;;2.00;;
9880;SDS011;4979;51.014;6.678;2023-09-19T14:33:31;4.32;;;1.35;;
9880;SDS011;4979;51.014;6.678;2023-09-19T14:35:57;2.70;;;1.20;;
9880;SDS011;4979;51.014;6.678;2023-09-19T14:38:23;3.90;;;1.80;;
9880;SDS011;4979;51.014;6.678;2023-09-19T14:40:58;3.95;;;1.67;;
9880;SDS011;4979;51.014;6.678;2023-09-19T14:43:25;3.28;;;1.30;;
9880;SDS011;4979;51.014;6.678;2023-09-19T14:45:50;4.88;;;1.30;;
9880;SDS011;4979;51.014;6.678;2023-09-19T14:48:16;7.88;;;1.52;;
9880;SDS011;4979;51.014;6.678;2023-09-19T14:50:42;7.00;;;1.38;;
9880;SDS011;4979;51.014;6.678;2023-09-19T14:53:09;3.42;;;1.15;;
9880;SDS011;4979;51.014;6.678;2023-09-19T14:55:38;9.90;;;1.38;;
9880;SDS011;4979;51.014;6.678;2023-09-19T14:58:09;8.48;;;1.60;;
9880;SDS011;4979;51.014;6.678;2023-09-19T15:00:35;5.05;;;1.17;;
9880;SDS011;4979;51.014;6.678;2023-09-19T15:03:00;3.00;;;1.13;;
9880;SDS011;4979;51.014;6.678;2023-09-19T15:05:27;3.30;;;1.40;;
9880;SDS011;4979;51.014;6.678;2023-09-19T15:07:54;3.30;;;1.23;;
9880;SDS011;4979;51.014;6.678;2023-09-19T15:10:20;6.60;;;1.23;;
9880;SDS011;4979;51.014;6.678;2023-09-19T15:12:47;4.05;;;1.23;;
9880;SDS011;4979;51.014;6.678;2023-09-19T15:15:13;2.38;;;1.45;;
9880;SDS011;4979;51.014;6.678;2023-09-19T15:17:39;8.73;;;1.23;;
9880;SDS011;4979;51.014;6.678;2023-09-19T15:20:06;2.97;;;1.20;;
9880;SDS011;4979;51.014;6.678;2023-09-19T15:22:33;1.90;;;1.25;;
9880;SDS011;4979;51.014;6.678;2023-09-19T15:24:59;2.35;;;1.15;;
9880;SDS011;4979;51.014;6.678;2023-09-19T15:27:26;1.70;;;1.45;;
9880;SDS011;4979;51.014;6.678;2023-09-19T15:29:52;2.03;;;0.93;;
9880;SDS011;4979;51.014;6.678;2023-09-19T15:32:18;2.25;;;1.30;;
9880;SDS011;4979;51.014;6.678;2023-09-19T15:34:43;1.90;;;1.20;;
9880;SDS011;4979;51.014;6.678;2023-09-19T15:37:09;4.28;;;1.20;;
9880;SDS011;4979;51.014;6.678;2023-09-19T15:39:35;7.72;;;1.80;;
9880;SDS011;4979;51.014;6.678;2023-09-19T15:42:02;5.05;;;1.52;;
9880;SDS011;4979;51.014;6.678;2023-09-19T15:44:27;2.78;;;1.30;;
9880;SDS011;4979;51.014;6.678;2023-09-19T15:46:53;3.33;;;1.33;;
9880;SDS011;4979;51.014;6.678;2023-09-19T15:49:18;2.95;;;1.40;;
9880;SDS011;4979;51.014;6.678;2023-09-19T15:51:44;5.05;;;1.52;;
9880;SDS011;4979;51.014;6.678;2023-09-19T15:54:14;1.95;;;1.20;;
9880;SDS011;4979;51.014;6.678;2023-09-19T15:56:40;3.28;;;1.27;;
9880;SDS011;4979;51.014;6.678;2023-09-19T15:59:07;3.22;;;1.40;;
9880;SDS011;4979;51.014;6.678;2023-09-19T16:01:34;2.42;;;1.10;;
9880;SDS011;4979;51.014;6.678;2023-09-19T16:04:00;5.97;;;1.10;;
9880;SDS011;4979;51.014;6.678;2023-09-19T16:06:26;6.07;;;1.25;;
9880;SDS011;4979;51.014;6.678;2023-09-19T16:08:57;3.00;;;1.20;;
9880;SDS011;4979;51.014;6.678;2023-09-19T16:11:24;3.08;;;1.52;;
9880;SDS011;4979;51.014;6.678;2023-09-19T16:13:53;6.13;;;1.20;;
9880;SDS011;4979;51.014;6.678;2023-09-19T16:16:20;5.00;;;1.30;;
9880;SDS011;4979;51.014;6.678;2023-09-19T16:18:50;2.45;;;1.40;;
9880;SDS011;4979;51.014;6.678;2023-09-19T16:21:18;1.90;;;1.30;;